createdAt,value
2023-10-15T00:00:07.571Z,23.54
2023-10-15T00:02:34.584Z,23.55
2023-10-15T00:05:01.480Z,23.53
2023-10-15T00:07:28.468Z,23.53
2023-10-15T00:09:55.390Z,23.50
2023-10-15T00:12:22.339Z,23.51
2023-10-15T00:14:49.365Z,23.51
2023-10-15T00:17:16.320Z,23.49
2023-10-15T00:19:43.316Z,23.46
2023-10-15T00:22:10.112Z,23.49
2023-10-15T00:24:36.956Z,23.53
2023-10-15T00:27:03.883Z,23.59
2023-10-15T00:29:30.679Z,23.54
2023-10-15T00:31:57.477Z,23.53
2023-10-15T00:34:24.508Z,23.45
2023-10-15T00:36:51.760Z,23.45
2023-10-15T00:39:18.563Z,23.47
2023-10-15T00:41:45.449Z,23.43
2023-10-15T00:44:12.426Z,23.44
2023-10-15T00:46:39.309Z,23.45
2023-10-15T00:49:06.353Z,23.43
2023-10-15T00:51:34.646Z,23.41
2023-10-15T00:54:01.449Z,23.45
2023-10-15T00:56:28.469Z,23.48
2023-10-15T00:58:55.400Z,23.56
2023-10-15T01:01:22.484Z,23.59
2023-10-15T01:03:49.363Z,23.66
2023-10-15T01:06:16.247Z,23.57
2023-10-15T01:08:43.072Z,23.46
2023-10-15T01:11:09.885Z,23.40
2023-10-15T01:13:37.787Z,23.39
2023-10-15T01:16:04.631Z,23.38
2023-10-15T01:18:31.504Z,23.43
2023-10-15T01:20:58.293Z,23.45
2023-10-15T01:23:25.153Z,23.41
2023-10-15T01:25:52.000Z,23.50
2023-10-15T01:28:19.000Z,23.42
2023-10-15T01:30:45.902Z,23.40
2023-10-15T01:33:12.693Z,23.36
2023-10-15T01:35:39.567Z,23.41
2023-10-15T01:38:06.352Z,23.41
2023-10-15T01:40:33.236Z,23.45
2023-10-15T01:43:00.070Z,23.42
2023-10-15T01:45:26.861Z,23.53
2023-10-15T01:47:53.730Z,23.65
2023-10-15T01:50:20.534Z,23.55
2023-10-15T01:52:47.481Z,23.53
2023-10-15T01:55:14.582Z,23.44
2023-10-15T01:57:41.415Z,23.44
2023-10-15T02:00:08.200Z,23.52
2023-10-15T02:02:35.188Z,23.48
2023-10-15T02:05:02.119Z,23.49
2023-10-15T02:07:29.251Z,23.49
2023-10-15T02:09:56.118Z,23.45
2023-10-15T02:12:22.958Z,23.39
2023-10-15T02:14:49.760Z,23.40
2023-10-15T02:17:16.738Z,23.42
2023-10-15T02:19:43.668Z,23.33
2023-10-15T02:22:10.429Z,23.36
2023-10-15T02:24:37.232Z,23.27
2023-10-15T02:27:04.227Z,23.33
2023-10-15T02:29:31.051Z,23.32
2023-10-15T02:31:57.985Z,23.36
2023-10-15T02:34:25.085Z,23.29
2023-10-15T02:36:52.149Z,23.35
2023-10-15T02:39:18.937Z,23.42
2023-10-15T02:41:45.814Z,23.44
2023-10-15T02:44:12.761Z,23.40
2023-10-15T02:46:39.655Z,23.34
2023-10-15T02:49:06.680Z,23.34
2023-10-15T02:51:33.499Z,23.32
2023-10-15T02:54:00.300Z,23.29
2023-10-15T02:56:27.377Z,23.31
2023-10-15T02:58:54.284Z,23.37
2023-10-15T03:01:21.266Z,23.27
2023-10-15T03:03:48.546Z,23.27
2023-10-15T03:06:15.479Z,23.27
2023-10-15T03:08:49.742Z,23.29
2023-10-15T03:11:17.092Z,23.18
2023-10-15T03:13:44.024Z,23.23
2023-10-15T03:16:10.892Z,23.20
2023-10-15T03:18:37.909Z,23.16
2023-10-15T03:21:04.866Z,23.16
2023-10-15T03:23:31.660Z,23.26
2023-10-15T03:25:58.732Z,23.22
2023-10-15T03:28:25.669Z,23.20
2023-10-15T03:30:52.574Z,23.19
2023-10-15T03:33:19.580Z,23.26
2023-10-15T03:35:46.490Z,23.23
2023-10-15T03:38:13.465Z,23.28
2023-10-15T03:40:40.287Z,23.30
2023-10-15T03:43:07.347Z,23.26
2023-10-15T03:45:34.320Z,23.35
2023-10-15T03:48:01.167Z,23.34
2023-10-15T03:50:28.231Z,23.30
2023-10-15T03:52:55.182Z,23.38
2023-10-15T03:55:21.999Z,23.31
2023-10-15T03:57:48.898Z,23.22
2023-10-15T04:00:15.792Z,23.35
2023-10-15T04:03:02.625Z,23.26
2023-10-15T04:05:29.510Z,23.29
2023-10-15T04:07:56.442Z,23.27
2023-10-15T04:10:23.633Z,23.26
2023-10-15T04:12:50.542Z,23.24
2023-10-15T04:15:17.340Z,23.26
2023-10-15T04:17:44.329Z,23.25
2023-10-15T04:20:11.250Z,23.23
2023-10-15T04:22:38.153Z,23.29
2023-10-15T04:25:05.168Z,23.21
2023-10-15T04:27:32.069Z,23.27
2023-10-15T04:29:58.866Z,23.18
2023-10-15T04:32:25.858Z,23.15
2023-10-15T04:34:52.871Z,23.16
2023-10-15T04:37:19.731Z,23.04
2023-10-15T04:39:52.990Z,23.04
2023-10-15T04:42:25.441Z,23.05
2023-10-15T04:44:52.440Z,23.12
2023-10-15T04:47:19.308Z,23.09
2023-10-15T04:49:46.433Z,23.07
2023-10-15T04:52:15.603Z,23.07
2023-10-15T04:54:42.502Z,22.98
2023-10-15T04:57:09.364Z,22.98
2023-10-15T04:59:36.458Z,23.02
2023-10-15T05:02:03.446Z,22.96
2023-10-15T05:04:30.407Z,23.05
2023-10-15T05:06:57.218Z,23.03
2023-10-15T05:09:24.046Z,22.95
2023-10-15T05:11:51.064Z,23.02
2023-10-15T05:14:17.887Z,23.09
2023-10-15T05:16:47.173Z,23.05
2023-10-15T05:19:13.958Z,23.04
2023-10-15T05:21:40.824Z,23.07
2023-10-15T05:24:07.623Z,22.99
2023-10-15T05:26:34.501Z,23.06
2023-10-15T05:29:01.380Z,23.12
2023-10-15T05:31:28.229Z,23.03
2023-10-15T05:33:55.198Z,23.07
2023-10-15T05:36:21.981Z,23.07
2023-10-15T05:38:48.798Z,23.02
2023-10-15T05:41:15.687Z,23.03
2023-10-15T05:43:42.631Z,22.98
2023-10-15T05:46:09.425Z,22.96
2023-10-15T05:48:36.531Z,23.04
2023-10-15T05:51:03.422Z,23.00
2023-10-15T05:53:32.240Z,22.97
2023-10-15T05:56:00.398Z,23.04
2023-10-15T05:58:27.341Z,22.89
2023-10-15T06:00:54.281Z,22.84
2023-10-15T06:03:21.314Z,22.81
2023-10-15T06:05:48.216Z,22.72
2023-10-15T06:08:15.001Z,22.77
2023-10-15T06:10:41.944Z,22.74
2023-10-15T06:13:08.751Z,22.70
2023-10-15T06:15:35.855Z,22.69
2023-10-15T06:18:03.064Z,22.69
2023-10-15T06:20:30.205Z,22.63
2023-10-15T06:22:57.337Z,22.68
2023-10-15T06:25:24.286Z,22.93
2023-10-15T06:27:51.152Z,22.87
2023-10-15T06:30:22.144Z,22.78
2023-10-15T06:32:54.421Z,22.65
2023-10-15T06:35:21.682Z,22.66
2023-10-15T06:37:51.572Z,22.73
2023-10-15T06:40:22.913Z,22.93
2023-10-15T06:42:51.097Z,22.91
2023-10-15T06:45:17.997Z,22.73
2023-10-15T06:47:45.115Z,22.84
2023-10-15T06:50:11.983Z,22.98
2023-10-15T06:52:38.804Z,22.82
2023-10-15T06:55:05.665Z,22.54
2023-10-15T06:57:32.687Z,22.32
2023-10-15T06:59:59.479Z,22.25
2023-10-15T07:02:26.420Z,22.17
2023-10-15T07:04:53.567Z,22.05
2023-10-15T07:07:20.388Z,22.07
2023-10-15T07:09:47.244Z,22.07
2023-10-15T07:12:14.066Z,22.11
2023-10-15T07:14:40.880Z,22.08
2023-10-15T07:17:08.060Z,22.10
2023-10-15T07:19:37.576Z,22.10
2023-10-15T07:22:04.463Z,22.08
2023-10-15T07:24:31.685Z,21.99
2023-10-15T07:26:58.496Z,22.03
2023-10-15T07:29:25.447Z,22.13
2023-10-15T07:31:52.370Z,22.16
2023-10-15T07:34:19.232Z,22.15
2023-10-15T07:36:46.104Z,22.15
2023-10-15T07:39:12.948Z,22.15
2023-10-15T07:41:39.763Z,22.09
2023-10-15T07:44:06.633Z,22.11
2023-10-15T07:46:33.814Z,22.12
2023-10-15T07:49:00.899Z,22.08
2023-10-15T07:51:29.958Z,22.13
2023-10-15T07:53:58.246Z,22.03
2023-10-15T07:56:25.284Z,22.04
2023-10-15T07:58:52.108Z,22.08
2023-10-15T08:01:18.912Z,22.08
2023-10-15T08:03:45.963Z,21.91
2023-10-15T08:06:13.196Z,21.90
2023-10-15T08:08:40.085Z,21.77
2023-10-15T08:11:07.111Z,21.81
2023-10-15T08:13:34.036Z,21.75
2023-10-15T08:16:00.883Z,21.91
2023-10-15T08:18:27.882Z,21.77
2023-10-15T08:20:54.953Z,21.54
2023-10-15T08:23:21.766Z,21.63
2023-10-15T08:25:48.705Z,21.30
2023-10-15T08:28:15.650Z,21.14
2023-10-15T08:30:42.576Z,21.43
2023-10-15T08:33:09.599Z,21.49
2023-10-15T08:35:39.002Z,21.69
2023-10-15T08:38:05.992Z,21.74
2023-10-15T08:40:33.242Z,21.85
2023-10-15T08:43:00.078Z,21.83
2023-10-15T08:45:27.051Z,21.92
2023-10-15T08:47:54.056Z,21.94
2023-10-15T08:50:20.969Z,21.93
2023-10-15T08:52:47.991Z,22.01
2023-10-15T08:55:14.870Z,21.95
2023-10-15T08:57:41.762Z,21.96
2023-10-15T09:00:17.386Z,21.97
2023-10-15T09:02:51.542Z,21.94
2023-10-15T09:05:18.450Z,21.96
2023-10-15T09:07:45.334Z,21.98
2023-10-15T09:10:12.398Z,21.98
2023-10-15T09:12:39.229Z,21.99
2023-10-15T09:15:06.129Z,22.01
2023-10-15T09:17:33.016Z,21.98
2023-10-15T09:19:59.896Z,21.96
2023-10-15T09:22:26.770Z,22.02
2023-10-15T09:24:53.741Z,22.01
2023-10-15T09:27:20.533Z,22.05
2023-10-15T09:29:47.424Z,22.06
2023-10-15T09:32:14.275Z,22.10
2023-10-15T09:34:41.184Z,22.07
2023-10-15T09:37:08.340Z,22.06
2023-10-15T09:39:35.267Z,22.08
2023-10-15T09:42:02.070Z,22.10
2023-10-15T09:44:29.702Z,22.10
2023-10-15T09:46:56.727Z,22.10
2023-10-15T09:49:23.650Z,22.09
2023-10-15T09:51:50.452Z,22.06
2023-10-15T09:54:17.308Z,22.09
2023-10-15T09:56:44.306Z,22.11
2023-10-15T09:59:11.163Z,22.09
2023-10-15T10:01:38.081Z,22.06
2023-10-15T10:04:05.086Z,22.08
2023-10-15T10:06:32.712Z,22.05
2023-10-15T10:08:59.841Z,22.09
2023-10-15T10:11:26.862Z,22.09
2023-10-15T10:13:53.841Z,22.06
2023-10-15T10:16:20.943Z,22.05
2023-10-15T10:18:47.812Z,22.07
2023-10-15T10:21:14.658Z,22.16
2023-10-15T10:23:49.529Z,22.08
2023-10-15T10:26:16.661Z,22.07
2023-10-15T10:28:43.720Z,22.07
2023-10-15T10:31:10.558Z,22.09
2023-10-15T10:33:37.613Z,22.05
2023-10-15T10:36:04.868Z,22.03
2023-10-15T10:38:31.851Z,22.06
2023-10-15T10:40:59.763Z,22.03
2023-10-15T10:43:27.669Z,22.04
2023-10-15T10:45:54.770Z,22.06
2023-10-15T10:48:21.717Z,22.08
2023-10-15T10:50:48.547Z,22.09
2023-10-15T10:53:15.565Z,22.12
2023-10-15T10:55:42.538Z,22.12
2023-10-15T10:58:09.532Z,22.12
2023-10-15T11:00:36.510Z,22.13
2023-10-15T11:03:03.504Z,22.12
2023-10-15T11:05:30.439Z,22.14
2023-10-15T11:07:57.353Z,22.11
2023-10-15T11:10:24.333Z,22.14
2023-10-15T11:12:51.144Z,22.18
2023-10-15T11:15:17.952Z,22.17
2023-10-15T11:17:44.986Z,22.19
2023-10-15T11:20:11.983Z,22.17
2023-10-15T11:22:38.914Z,22.18
2023-10-15T11:25:05.894Z,22.21
2023-10-15T11:27:32.749Z,22.18
2023-10-15T11:29:59.561Z,22.18
2023-10-15T11:32:26.698Z,22.21
2023-10-15T11:34:53.631Z,22.23
2023-10-15T11:37:20.449Z,22.23
2023-10-15T11:39:47.269Z,22.23
2023-10-15T11:42:14.148Z,22.26
2023-10-15T11:44:40.966Z,22.30
2023-10-15T11:47:07.898Z,22.30
2023-10-15T11:49:34.804Z,22.29
2023-10-15T11:52:04.681Z,22.35
2023-10-15T11:54:31.491Z,22.28
2023-10-15T11:56:58.272Z,22.33
2023-10-15T11:59:25.285Z,22.34
2023-10-15T12:01:52.348Z,22.34
2023-10-15T12:04:19.189Z,22.34
2023-10-15T12:06:46.261Z,22.37
2023-10-15T12:09:13.188Z,22.38
2023-10-15T12:11:40.053Z,22.40
2023-10-15T12:14:06.964Z,22.41
2023-10-15T12:16:33.875Z,22.40
2023-10-15T12:19:00.727Z,22.43
2023-10-15T12:21:27.827Z,22.39
2023-10-15T12:23:54.749Z,22.40
2023-10-15T12:26:24.537Z,22.41
2023-10-15T12:28:51.431Z,22.42
2023-10-15T12:31:18.328Z,22.45
2023-10-15T12:33:45.339Z,22.43
2023-10-15T12:36:12.220Z,22.44
2023-10-15T12:38:39.131Z,22.44
2023-10-15T12:41:06.120Z,22.44
2023-10-15T12:43:32.983Z,22.45
2023-10-15T12:45:59.777Z,22.45
2023-10-15T12:48:26.692Z,22.42
2023-10-15T12:50:53.499Z,22.43
2023-10-15T12:53:20.379Z,22.46
2023-10-15T12:55:47.253Z,22.47
2023-10-15T12:58:14.245Z,22.45
2023-10-15T13:00:41.144Z,22.49
2023-10-15T13:03:08.204Z,22.50
2023-10-15T13:05:35.203Z,22.55
2023-10-15T13:08:02.025Z,22.50
2023-10-15T13:10:28.859Z,22.51
2023-10-15T13:12:55.820Z,22.52
2023-10-15T13:15:40.991Z,22.54
2023-10-15T13:18:07.954Z,22.51
2023-10-15T13:20:34.783Z,22.55
2023-10-15T13:23:01.623Z,22.57
2023-10-15T13:25:28.536Z,22.58
2023-10-15T13:27:55.530Z,22.59
2023-10-15T13:30:22.322Z,22.57
2023-10-15T13:32:49.685Z,22.62
2023-10-15T13:35:16.903Z,22.63
2023-10-15T13:37:43.938Z,22.60
2023-10-15T13:40:13.304Z,22.61
2023-10-15T13:42:40.182Z,22.63
2023-10-15T13:45:06.973Z,22.62
2023-10-15T13:47:34.084Z,22.63
2023-10-15T13:50:00.985Z,22.65
2023-10-15T13:52:30.840Z,22.64
2023-10-15T13:54:57.835Z,22.63
2023-10-15T13:57:24.734Z,22.65
2023-10-15T13:59:51.536Z,22.61
2023-10-15T14:02:18.476Z,22.64
2023-10-15T14:04:45.643Z,22.63
2023-10-15T14:07:12.580Z,22.63
2023-10-15T14:09:39.366Z,22.61
2023-10-15T14:12:06.357Z,22.60
2023-10-15T14:14:33.198Z,22.57
2023-10-15T14:17:00.142Z,22.57
2023-10-15T14:19:27.227Z,22.56
2023-10-15T14:21:54.070Z,22.58
2023-10-15T14:24:20.869Z,22.57
2023-10-15T14:26:47.642Z,22.59
2023-10-15T14:29:14.562Z,22.59
2023-10-15T14:31:41.437Z,22.59
2023-10-15T14:34:08.517Z,22.61
2023-10-15T14:36:35.522Z,22.63
2023-10-15T14:39:02.341Z,22.63
2023-10-15T14:41:29.217Z,22.64
2023-10-15T14:43:56.062Z,22.61
2023-10-15T14:46:22.943Z,22.63
2023-10-15T14:48:49.804Z,22.64
2023-10-15T14:51:16.701Z,22.62
2023-10-15T14:53:43.775Z,22.64
2023-10-15T14:56:10.690Z,22.64
2023-10-15T14:58:37.496Z,22.64
2023-10-15T15:01:04.369Z,22.67
2023-10-15T15:03:31.236Z,22.35
2023-10-15T15:05:58.361Z,22.69
2023-10-15T15:08:25.208Z,22.78
2023-10-15T15:10:52.099Z,22.76
2023-10-15T15:13:18.950Z,22.83
2023-10-15T15:15:45.936Z,22.81
2023-10-15T15:18:12.784Z,22.67
2023-10-15T15:20:39.672Z,22.69
2023-10-15T15:23:06.561Z,22.87
2023-10-15T15:25:33.458Z,22.23
2023-10-15T15:28:00.395Z,22.37
2023-10-15T15:30:27.189Z,22.41
2023-10-15T15:32:54.053Z,22.42
2023-10-15T15:35:21.094Z,22.51
2023-10-15T15:37:48.072Z,22.52
2023-10-15T15:40:14.914Z,22.64
2023-10-15T15:42:41.841Z,22.66
2023-10-15T15:45:09.084Z,22.71
2023-10-15T15:47:36.019Z,22.70
2023-10-15T15:50:03.048Z,22.64
2023-10-15T15:52:29.980Z,22.57
2023-10-15T15:54:56.946Z,22.66
2023-10-15T15:57:23.910Z,22.55
2023-10-15T15:59:50.733Z,22.66
2023-10-15T16:02:17.665Z,22.60
2023-10-15T16:04:44.662Z,22.48
2023-10-15T16:07:11.601Z,22.43
2023-10-15T16:09:38.431Z,22.46
2023-10-15T16:12:05.231Z,22.46
2023-10-15T16:14:32.254Z,22.52
2023-10-15T16:16:59.164Z,22.33
2023-10-15T16:19:25.953Z,22.45
2023-10-15T16:21:52.830Z,22.51
2023-10-15T16:24:19.629Z,22.45
2023-10-15T16:26:46.433Z,22.37
2023-10-15T16:29:13.535Z,22.41
2023-10-15T16:31:41.200Z,22.42
2023-10-15T16:34:08.039Z,22.52
2023-10-15T16:36:35.126Z,22.46
2023-10-15T16:39:02.091Z,22.49
2023-10-15T16:41:29.124Z,22.42
2023-10-15T16:43:56.060Z,22.44
2023-10-15T16:46:23.100Z,22.48
2023-10-15T16:48:50.068Z,22.37
2023-10-15T16:51:24.876Z,22.18
2023-10-15T16:53:53.385Z,22.28
2023-10-15T16:56:20.357Z,22.29
2023-10-15T16:58:47.351Z,22.36
2023-10-15T17:01:17.629Z,22.36
2023-10-15T17:03:44.583Z,22.31
2023-10-15T17:06:11.449Z,22.14
2023-10-15T17:08:38.458Z,22.26
2023-10-15T17:11:05.488Z,22.20
2023-10-15T17:13:32.287Z,22.13
2023-10-15T17:15:59.294Z,22.09
2023-10-15T17:18:26.381Z,22.01
2023-10-15T17:20:53.921Z,21.80
2023-10-15T17:23:20.793Z,22.07
2023-10-15T17:25:47.619Z,22.04
2023-10-15T17:28:14.454Z,22.00
2023-10-15T17:30:41.355Z,22.09
2023-10-15T17:33:08.375Z,22.16
2023-10-15T17:35:35.299Z,21.86
2023-10-15T17:38:02.182Z,21.77
2023-10-15T17:40:32.381Z,21.77
2023-10-15T17:43:00.407Z,21.59
2023-10-15T17:45:27.399Z,21.69
2023-10-15T17:47:54.657Z,21.81
2023-10-15T17:50:21.617Z,21.87
2023-10-15T17:52:48.408Z,22.04
2023-10-15T17:55:17.776Z,21.75
2023-10-15T17:57:44.660Z,21.64
2023-10-15T18:00:11.559Z,21.65
2023-10-15T18:02:38.644Z,21.71
2023-10-15T18:05:05.493Z,21.77
2023-10-15T18:07:32.333Z,21.61
2023-10-15T18:09:59.228Z,21.73
2023-10-15T18:12:26.204Z,21.70
2023-10-15T18:14:53.424Z,21.84
2023-10-15T18:17:20.412Z,22.10
2023-10-15T18:19:47.348Z,22.06
2023-10-15T18:22:14.261Z,22.10
2023-10-15T18:24:41.176Z,22.20
2023-10-15T18:27:08.054Z,22.19
2023-10-15T18:29:35.137Z,22.18
2023-10-15T18:32:01.965Z,22.28
2023-10-15T18:34:28.884Z,22.24
2023-10-15T18:36:55.892Z,22.22
2023-10-15T18:39:22.934Z,22.22
2023-10-15T18:41:49.827Z,22.17
2023-10-15T18:44:16.747Z,22.23
2023-10-15T18:46:43.775Z,22.03
2023-10-15T18:49:10.616Z,21.98
2023-10-15T18:51:38.463Z,22.05
2023-10-15T18:54:05.561Z,22.07
2023-10-15T18:56:32.647Z,22.08
2023-10-15T18:58:59.522Z,22.08
2023-10-15T19:01:26.447Z,22.08
2023-10-15T19:03:53.709Z,21.92
2023-10-15T19:06:20.859Z,21.97
2023-10-15T19:08:47.747Z,21.98
2023-10-15T19:11:17.280Z,22.02
2023-10-15T19:13:44.331Z,22.00
2023-10-15T19:16:11.183Z,22.02
2023-10-15T19:18:38.249Z,22.05
2023-10-15T19:21:05.402Z,22.04
2023-10-15T19:23:32.423Z,22.01
2023-10-15T19:25:59.385Z,21.97
2023-10-15T19:28:26.346Z,21.96
2023-10-15T19:30:53.320Z,22.01
2023-10-15T19:33:20.196Z,21.95
2023-10-15T19:35:47.183Z,22.08
2023-10-15T19:38:14.036Z,22.31
2023-10-15T19:40:40.904Z,22.32
2023-10-15T19:43:07.860Z,22.36
2023-10-15T19:45:34.962Z,22.18
2023-10-15T19:48:01.874Z,22.26
2023-10-15T19:50:28.719Z,22.37
2023-10-15T19:52:55.804Z,22.36
2023-10-15T19:55:22.645Z,22.44
2023-10-15T19:57:49.554Z,22.46
2023-10-15T20:00:16.855Z,22.46
2023-10-15T20:02:43.999Z,22.50
2023-10-15T20:05:10.973Z,22.51
2023-10-15T20:07:38.055Z,22.51
2023-10-15T20:10:04.990Z,22.54
2023-10-15T20:12:31.964Z,22.50
2023-10-15T20:15:01.969Z,22.53
2023-10-15T20:17:28.863Z,22.49
2023-10-15T20:19:55.736Z,22.50
2023-10-15T20:22:22.563Z,22.44
2023-10-15T20:24:49.426Z,22.49
2023-10-15T20:27:16.359Z,22.49
2023-10-15T20:29:43.444Z,22.51
2023-10-15T20:32:10.384Z,22.48
2023-10-15T20:34:37.330Z,22.53
2023-10-15T20:37:04.136Z,22.47
2023-10-15T20:39:31.312Z,22.43
2023-10-15T20:41:58.267Z,22.45
2023-10-15T20:44:25.388Z,22.44
2023-10-15T20:46:54.871Z,22.43
2023-10-15T20:49:21.750Z,22.47
2023-10-15T20:51:51.124Z,22.45
2023-10-15T20:54:22.004Z,22.43
2023-10-15T20:56:49.389Z,22.48
2023-10-15T20:59:16.328Z,22.44
2023-10-15T21:01:43.362Z,22.47
2023-10-15T21:04:10.178Z,22.53
2023-10-15T21:06:37.240Z,22.57
2023-10-15T21:09:04.208Z,22.45
2023-10-15T21:11:31.058Z,22.40
2023-10-15T21:13:58.123Z,22.45
2023-10-15T21:16:25.171Z,22.47
2023-10-15T21:18:52.116Z,22.47
2023-10-15T21:21:19.040Z,22.45
2023-10-15T21:23:45.993Z,22.51
2023-10-15T21:26:12.791Z,22.51
2023-10-15T21:28:39.617Z,22.49
2023-10-15T21:31:06.773Z,22.44
2023-10-15T21:33:33.898Z,22.51
2023-10-15T21:36:00.774Z,22.43
2023-10-15T21:38:27.767Z,22.35
2023-10-15T21:40:54.755Z,22.40
2023-10-15T21:43:21.550Z,22.45
2023-10-15T21:45:48.370Z,22.44
2023-10-15T21:48:15.352Z,22.51
2023-10-15T21:50:42.199Z,22.48
2023-10-15T21:53:09.049Z,22.39
2023-10-15T21:55:35.846Z,22.35
2023-10-15T21:58:02.648Z,22.37
2023-10-15T22:00:29.721Z,22.39
2023-10-15T22:02:56.854Z,22.40
2023-10-15T22:05:23.695Z,22.42
2023-10-15T22:07:50.471Z,22.44
2023-10-15T22:10:17.254Z,22.43
2023-10-15T22:12:44.100Z,22.39
2023-10-15T22:15:11.084Z,22.42
2023-10-15T22:17:38.009Z,22.43
2023-10-15T22:20:04.998Z,22.41
2023-10-15T22:22:31.844Z,22.42
2023-10-15T22:24:58.690Z,22.40
2023-10-15T22:27:25.685Z,22.41
2023-10-15T22:29:52.644Z,22.37
2023-10-15T22:32:19.548Z,22.35
2023-10-15T22:34:46.359Z,22.31
2023-10-15T22:37:13.143Z,22.36
2023-10-15T22:39:40.041Z,22.29
2023-10-15T22:42:07.154Z,22.31
2023-10-15T22:44:34.150Z,22.27
2023-10-15T22:47:01.114Z,22.22
2023-10-15T22:49:27.937Z,22.27
2023-10-15T22:51:54.804Z,22.26
2023-10-15T22:54:21.647Z,22.36
2023-10-15T22:56:48.487Z,22.34
2023-10-15T22:59:15.335Z,22.40
2023-10-15T23:01:42.170Z,22.33
2023-10-15T23:04:09.197Z,22.36
2023-10-15T23:06:36.166Z,22.37
2023-10-15T23:09:03.069Z,22.33
2023-10-15T23:11:30.055Z,22.39
2023-10-15T23:13:56.970Z,22.34
2023-10-15T23:16:23.849Z,22.40
2023-10-15T23:18:50.929Z,22.36
2023-10-15T23:21:17.889Z,22.36
2023-10-15T23:23:44.693Z,22.28
2023-10-15T23:26:11.584Z,22.28
2023-10-15T23:28:38.543Z,22.25
2023-10-15T23:31:05.517Z,22.23
2023-10-15T23:33:32.358Z,22.27
2023-10-15T23:35:59.581Z,22.37
2023-10-15T23:38:26.500Z,22.32
2023-10-15T23:40:53.306Z,22.32
2023-10-15T23:43:20.166Z,22.30
2023-10-15T23:45:47.106Z,22.33
2023-10-15T23:48:14.092Z,22.24
2023-10-15T23:50:41.008Z,22.25
2023-10-15T23:53:07.958Z,22.29
2023-10-15T23:55:34.875Z,22.29
2023-10-15T23:58:01.892Z,22.19
